Terminal Aerodrome Forecast
Issued by NWS Mt. Holly, NJ

Home | Current Version | Previous Version | Text Only | Print | Product List | Glossary On
Versions: 1 2 3 4 5 6 7 8 9 10 11 12 13 14 15 16 17 18 19 20 21 22 23 24 25 26
000
FTUS41 KPHI 281121
TAFPHL
TAF
KPHL 281121Z 2812/2918 32012KT P6SM SCT050
     FM281300 34014G22KT P6SM SCT050
     FM282100 32010KT P6SM FEW050
     FM290200 31005KT P6SM SKC
     FM291500 32010KT P6SM SCT120=

USA.gov is the U.S. government's official web portal to all federal, state and local government web resources and services.